Time;durP1;ratioP1;P1;durP2;ratioP2;P2;SDS_P1;SDS_P2;PMS_P1;PMS_P2;Temp;Humidity;BMP_temperature;BMP_pressure;BME280_temperature;BME280_humidity;BME280_pressure;Samples;Min_cycle;Max_cycle;Signal;HPM_P1;HPM_P2
2021/10/24 00:01:07;;;;;;;0.87;0.87;;;5.20;97.20;;;;;;5036017;28;20174;-80
2021/10/24 00:03:33;;;;;;;1.10;1.00;;;5.20;97.30;;;;;;5036530;28;20416;-82
2021/10/24 00:06:00;;;;;;;1.50;0.83;;;5.20;97.40;;;;;;5036782;28;20453;-82
2021/10/24 00:08:26;;;;;;;0.98;0.88;;;5.20;97.20;;;;;;5037634;28;20439;-81
2021/10/24 00:10:51;;;;;;;1.63;1.40;;;5.20;97.10;;;;;;5036823;28;20208;-81
2021/10/24 00:13:17;;;;;;;1.67;1.10;;;5.10;97.30;;;;;;5038198;28;20407;-82
2021/10/24 00:15:43;;;;;;;0.87;0.77;;;5.10;97.80;;;;;;5037230;28;20515;-81
2021/10/24 00:18:10;;;;;;;1.30;0.90;;;5.10;98.10;;;;;;5036417;28;20440;-81
2021/10/24 00:20:36;;;;;;;1.10;0.90;;;5.10;98.10;;;;;;5035942;28;20177;-82
2021/10/24 00:23:02;;;;;;;0.88;0.60;;;5.10;98.10;;;;;;5036688;28;20178;-80
2021/10/24 00:25:28;;;;;;;0.85;0.77;;;5.00;98.20;;;;;;5036389;28;20194;-82
2021/10/24 00:27:54;;;;;;;2.25;0.77;;;5.10;97.80;;;;;;5037808;28;20685;-82
2021/10/24 00:30:20;;;;;;;0.93;0.82;;;5.00;97.60;;;;;;5041377;28;20170;-82
2021/10/24 00:32:46;;;;;;;1.00;0.90;;;5.00;97.60;;;;;;5041004;28;20201;-82
2021/10/24 00:35:11;;;;;;;5.47;0.93;;;5.00;97.60;;;;;;5040915;28;20935;-82
2021/10/24 00:37:37;;;;;;;4.87;1.67;;;5.00;97.70;;;;;;5042888;28;20451;-81
2021/10/24 00:40:04;;;;;;;0.60;0.50;;;5.00;97.50;;;;;;5041552;28;20434;-82
2021/10/24 00:42:30;;;;;;;0.90;0.70;;;5.00;97.30;;;;;;5041543;28;20424;-81
2021/10/24 00:44:56;;;;;;;1.30;0.73;;;5.00;97.30;;;;;;5041408;28;20181;-82
2021/10/24 00:47:22;;;;;;;8.02;1.13;;;4.90;97.10;;;;;;5041652;28;20432;-81
2021/10/24 00:49:49;;;;;;;3.80;1.60;;;4.90;97.10;;;;;;5042424;28;20204;-81
2021/10/24 00:52:16;;;;;;;0.65;0.63;;;4.90;97.00;;;;;;5040645;28;20428;-82
2021/10/24 00:54:43;;;;;;;0.85;0.75;;;4.90;97.00;;;;;;5040233;28;20177;-81
2021/10/24 00:57:10;;;;;;;0.90;0.77;;;4.90;97.10;;;;;;5040944;28;20200;-82
2021/10/24 00:59:38;;;;;;;1.38;1.27;;;4.90;97.20;;;;;;5039560;28;20261;-82
2021/10/24 01:02:04;;;;;;;1.10;1.00;;;4.80;97.30;;;;;;5039482;28;20642;-82
2021/10/24 01:04:30;;;;;;;0.93;0.82;;;4.80;97.30;;;;;;5039849;28;20178;-82
2021/10/24 01:07:02;;;;;;;1.13;0.95;;;4.80;97.20;;;;;;5040740;28;20209;-81
2021/10/24 01:09:30;;;;;;;1.05;0.80;;;4.70;97.50;;;;;;5040383;28;20660;-82
2021/10/24 01:11:56;;;;;;;1.08;0.98;;;4.70;97.90;;;;;;5040521;28;20253;-82
2021/10/24 01:14:22;;;;;;;0.80;0.60;;;4.70;98.10;;;;;;5042231;28;20166;-82
2021/10/24 01:16:52;;;;;;;1.77;1.55;;;4.70;97.90;;;;;;5042400;28;20569;-82
2021/10/24 01:19:19;;;;;;;1.63;1.00;;;4.70;97.80;;;;;;5043078;28;20181;-82
2021/10/24 01:21:45;;;;;;;1.02;0.93;;;4.70;97.70;;;;;;5043102;28;20246;-82
2021/10/24 01:24:11;;;;;;;1.27;1.13;;;4.70;97.80;;;;;;5042896;28;20606;-82
2021/10/24 01:26:39;;;;;;;1.10;1.05;;;4.60;97.90;;;;;;5040602;28;20464;-82
2021/10/24 01:29:06;;;;;;;1.40;0.80;;;4.60;98.10;;;;;;5039915;28;20174;-81
2021/10/24 01:31:33;;;;;;;0.98;0.95;;;4.60;98.10;;;;;;5040435;28;20791;-82
2021/10/24 01:33:59;;;;;;;0.73;0.70;;;4.60;98.50;;;;;;5040849;28;20177;-82
2021/10/24 01:36:25;;;;;;;5.00;1.53;;;4.60;98.70;;;;;;5039464;28;20173;-81
2021/10/24 01:38:50;;;;;;;0.95;0.90;;;4.60;98.70;;;;;;5039906;28;20725;-81
2021/10/24 01:41:18;;;;;;;2.60;1.13;;;4.60;98.60;;;;;;5039176;28;20193;-81
2021/10/24 01:43:46;;;;;;;0.98;0.90;;;4.50;98.50;;;;;;5038863;28;20409;-82
2021/10/24 01:46:16;;;;;;;1.05;0.90;;;4.50;98.50;;;;;;5038716;28;20198;-82
2021/10/24 01:48:42;;;;;;;0.55;0.50;;;4.50;98.40;;;;;;5040434;28;20243;-81
2021/10/24 01:51:08;;;;;;;1.38;0.75;;;4.50;98.40;;;;;;5040265;28;20201;-82
2021/10/24 01:53:36;;;;;;;4.93;2.00;;;4.50;98.40;;;;;;5040729;28;20228;-81
2021/10/24 01:56:03;;;;;;;0.60;0.60;;;4.40;98.60;;;;;;5040150;28;20673;-82
2021/10/24 01:58:28;;;;;;;0.70;0.63;;;4.40;98.60;;;;;;5039880;28;20229;-81
2021/10/24 02:00:55;;;;;;;1.20;0.80;;;4.40;98.50;;;;;;5039125;28;20177;-82
2021/10/24 02:03:20;;;;;;;0.93;0.85;;;4.40;98.40;;;;;;5039471;28;20205;-82
2021/10/24 02:05:46;;;;;;;0.60;0.50;;;4.30;98.30;;;;;;5041382;28;20255;-81
2021/10/24 02:08:13;;;;;;;6.28;1.25;;;4.30;98.50;;;;;;5038907;28;20193;-82
2021/10/24 02:10:40;;;;;;;3.85;1.27;;;4.30;98.90;;;;;;5040850;28;20181;-81
2021/10/24 02:13:08;;;;;;;1.13;1.02;;;4.30;98.90;;;;;;5040524;28;20169;-81
2021/10/24 02:15:35;;;;;;;0.60;0.50;;;4.30;98.70;;;;;;5039361;28;20200;-81
2021/10/24 02:18:05;;;;;;;1.02;0.93;;;4.20;98.70;;;;;;5040408;28;20196;-81
2021/10/24 02:20:33;;;;;;;1.25;1.15;;;4.20;99.00;;;;;;5039681;28;20184;-81
2021/10/24 02:23:00;;;;;;;1.92;0.75;;;4.20;99.10;;;;;;5040867;28;20169;-81
2021/10/24 02:25:27;;;;;;;1.35;0.57;;;4.20;99.00;;;;;;5039644;28;20200;-80
2021/10/24 02:27:52;;;;;;;1.30;1.20;;;4.20;98.90;;;;;;5038785;28;20189;-82
2021/10/24 02:30:18;;;;;;;0.63;0.57;;;4.20;98.70;;;;;;5039926;28;20177;-81
2021/10/24 02:32:45;;;;;;;0.70;0.68;;;4.20;98.70;;;;;;5038865;28;20177;-82
2021/10/24 02:35:13;;;;;;;0.73;0.63;;;4.20;98.70;;;;;;5039135;28;20199;-81
2021/10/24 02:37:39;;;;;;;2.67;1.00;;;4.20;98.50;;;;;;5038503;28;20193;-81
2021/10/24 02:40:07;;;;;;;1.00;0.90;;;4.20;98.60;;;;;;5057310;28;20240;-81
2021/10/24 02:42:33;;;;;;;2.00;0.95;;;4.10;98.60;;;;;;5039792;28;20545;-82
2021/10/24 02:44:58;;;;;;;2.17;1.50;;;4.10;98.40;;;;;;5040030;28;20183;-82
2021/10/24 02:47:24;;;;;;;0.63;0.60;;;4.10;98.40;;;;;;5039756;28;20526;-82
2021/10/24 02:49:50;;;;;;;0.80;0.77;;;4.10;98.60;;;;;;5039092;28;20165;-81
2021/10/24 02:52:16;;;;;;;1.33;0.60;;;4.10;98.80;;;;;;5057059;28;20453;-81
2021/10/24 02:54:42;;;;;;;1.43;0.90;;;4.00;99.10;;;;;;5056985;28;20400;-82
2021/10/24 02:57:08;;;;;;;1.10;0.65;;;4.00;98.90;;;;;;5039191;28;20432;-80
2021/10/24 02:59:34;;;;;;;1.73;0.90;;;4.00;98.80;;;;;;5039176;28;20173;-82
2021/10/24 03:02:01;;;;;;;1.50;0.90;;;4.00;99.10;;;;;;5039385;28;20447;-82
2021/10/24 03:04:29;;;;;;;2.70;1.67;;;4.00;99.10;;;;;;5039036;28;20181;-82
2021/10/24 03:06:55;;;;;;;0.80;0.75;;;3.90;99.10;;;;;;5039314;28;20211;-81
2021/10/24 03:09:21;;;;;;;3.90;1.55;;;3.90;99.10;;;;;;5039706;28;20260;-82
2021/10/24 03:11:48;;;;;;;0.63;0.53;;;3.80;99.10;;;;;;5001888;28;1257944;-81
2021/10/24 03:14:14;;;;;;;3.90;1.70;;;3.80;99.10;;;;;;5034475;28;20638;-81
2021/10/24 03:16:42;;;;;;;2.15;1.35;;;3.90;99.10;;;;;;5039094;28;20194;-81
2021/10/24 03:19:07;;;;;;;3.70;1.55;;;3.90;99.10;;;;;;5039694;28;20667;-81
2021/10/24 03:21:33;;;;;;;1.00;0.63;;;3.90;99.10;;;;;;5041305;28;20211;-81
2021/10/24 03:24:01;;;;;;;1.07;0.83;;;3.80;99.10;;;;;;5039492;28;20211;-80
2021/10/24 03:26:28;;;;;;;0.88;0.77;;;3.80;99.10;;;;;;5039447;28;20562;-79
2021/10/24 03:28:54;;;;;;;1.15;0.80;;;3.80;99.10;;;;;;5039736;28;20169;-81
2021/10/24 03:31:20;;;;;;;0.85;0.75;;;3.80;99.10;;;;;;5040404;28;20695;-81
2021/10/24 03:33:46;;;;;;;0.90;0.80;;;3.80;99.00;;;;;;5039966;28;20641;-81
2021/10/24 03:36:13;;;;;;;0.40;0.40;;;3.80;98.90;;;;;;5039698;28;20423;-81
2021/10/24 03:38:39;;;;;;;1.05;0.95;;;3.80;98.90;;;;;;5040335;28;20232;-82
2021/10/24 03:41:05;;;;;;;6.93;1.35;;;3.70;99.10;;;;;;5040133;28;20260;-81
2021/10/24 03:43:31;;;;;;;1.00;0.90;;;3.70;99.10;;;;;;5040005;28;20262;-81
2021/10/24 03:45:56;;;;;;;5.10;1.88;;;3.70;99.10;;;;;;5039196;28;20467;-81
2021/10/24 03:48:22;;;;;;;0.50;0.50;;;3.70;99.10;;;;;;5039456;28;20718;-81
2021/10/24 03:50:48;;;;;;;0.60;0.50;;;3.70;99.10;;;;;;5039656;28;20443;-81
2021/10/24 03:53:15;;;;;;;0.87;0.77;;;3.70;99.10;;;;;;5039706;28;20412;-81
2021/10/24 03:55:41;;;;;;;4.57;1.25;;;3.70;99.10;;;;;;5039976;28;20184;-80
2021/10/24 03:58:07;;;;;;;0.63;0.53;;;3.70;99.10;;;;;;5039480;28;20697;-80
2021/10/24 04:00:32;;;;;;;0.87;0.80;;;3.60;99.10;;;;;;5039305;28;20518;-81
2021/10/24 04:03:01;;;;;;;2.20;1.07;;;3.60;99.10;;;;;;5039712;28;20204;-80
2021/10/24 04:05:28;;;;;;;1.10;1.00;;;3.60;99.10;;;;;;5039129;28;20204;-81
2021/10/24 04:07:55;;;;;;;2.78;1.38;;;3.60;99.10;;;;;;5039866;28;20657;-80
2021/10/24 04:10:23;;;;;;;0.55;0.47;;;3.60;99.10;;;;;;5039932;28;20169;-81
2021/10/24 04:12:50;;;;;;;0.40;0.40;;;3.50;99.10;;;;;;5041199;28;20192;-80
2021/10/24 04:15:17;;;;;;;0.85;0.75;;;3.50;99.10;;;;;;5041174;28;20619;-81
2021/10/24 04:17:43;;;;;;;0.93;0.82;;;3.50;99.10;;;;;;5039614;28;20568;-81
2021/10/24 04:20:12;;;;;;;1.25;0.73;;;3.50;99.10;;;;;;5039741;28;20173;-80
2021/10/24 04:22:39;;;;;;;7.47;1.30;;;3.40;99.10;;;;;;5039110;28;20556;-81
2021/10/24 04:25:08;;;;;;;0.75;0.65;;;3.40;99.10;;;;;;5040501;28;20267;-82
2021/10/24 04:27:34;;;;;;;1.38;1.27;;;3.40;99.10;;;;;;5039693;28;20189;-81
2021/10/24 04:30:00;;;;;;;4.77;1.17;;;3.50;99.10;;;;;;5039314;28;20165;-81
2021/10/24 04:32:26;;;;;;;0.43;0.40;;;3.40;99.10;;;;;;5038228;28;20934;-82
2021/10/24 04:34:52;;;;;;;0.80;0.70;;;3.40;99.10;;;;;;5037520;28;20219;-81
2021/10/24 04:37:19;;;;;;;0.40;0.40;;;3.40;99.10;;;;;;5037432;28;20200;-82
2021/10/24 04:39:45;;;;;;;0.88;0.77;;;3.40;99.10;;;;;;5038897;28;20180;-82
2021/10/24 04:42:11;;;;;;;0.75;0.65;;;3.40;99.10;;;;;;5039718;28;20169;-81
2021/10/24 04:44:37;;;;;;;0.93;0.83;;;3.40;99.10;;;;;;5038182;28;20177;-83
2021/10/24 04:47:03;;;;;;;1.60;0.93;;;3.40;99.10;;;;;;5038275;28;20459;-82
2021/10/24 04:49:30;;;;;;;4.28;0.70;;;3.30;99.10;;;;;;5038702;28;20587;-82
2021/10/24 04:51:57;;;;;;;1.58;1.58;;;3.30;99.10;;;;;;5039029;28;20232;-81
2021/10/24 04:54:24;;;;;;;0.68;0.50;;;3.20;99.10;;;;;;5038772;28;20173;-81
2021/10/24 04:56:51;;;;;;;0.63;0.60;;;3.30;99.10;;;;;;5038361;28;20189;-80
2021/10/24 04:59:18;;;;;;;1.23;1.13;;;3.30;99.10;;;;;;5038117;28;20245;-81
2021/10/24 05:01:45;;;;;;;4.60;0.80;;;3.20;99.10;;;;;;5037728;28;20696;-82
2021/10/24 05:04:11;;;;;;;1.25;0.75;;;3.20;99.10;;;;;;5038770;28;20177;-82
2021/10/24 05:06:38;;;;;;;1.05;0.95;;;3.20;99.10;;;;;;5038629;28;20212;-81
2021/10/24 05:09:04;;;;;;;2.63;0.88;;;3.20;99.10;;;;;;5037251;28;20214;-82
2021/10/24 05:11:30;;;;;;;2.90;0.73;;;3.20;99.10;;;;;;5038096;28;20641;-83
2021/10/24 05:13:56;;;;;;;2.05;0.70;;;3.20;99.10;;;;;;5040112;28;20223;-83
2021/10/24 05:16:22;;;;;;;1.60;0.90;;;3.10;99.10;;;;;;5042403;28;20178;-81
2021/10/24 05:18:48;;;;;;;0.93;0.90;;;3.10;99.10;;;;;;5043037;28;20176;-79
2021/10/24 05:21:14;;;;;;;0.70;0.60;;;3.10;99.10;;;;;;5043570;28;20277;-82
2021/10/24 05:23:40;;;;;;;0.98;0.70;;;3.10;99.10;;;;;;5044005;28;20587;-83
2021/10/24 05:26:06;;;;;;;0.70;0.60;;;3.10;99.10;;;;;;5043649;28;20288;-83
2021/10/24 05:28:32;;;;;;;0.70;0.60;;;3.10;99.10;;;;;;5044586;28;20482;-83
2021/10/24 05:30:58;;;;;;;0.98;0.50;;;3.10;99.10;;;;;;5044452;28;20412;-83
2021/10/24 05:33:24;;;;;;;3.17;1.03;;;3.10;99.10;;;;;;5041979;28;20188;-83
2021/10/24 05:35:52;;;;;;;1.27;0.60;;;3.10;99.10;;;;;;5042797;28;20199;-79
2021/10/24 05:38:17;;;;;;;1.10;1.00;;;3.10;99.10;;;;;;5040812;28;20239;-78
2021/10/24 05:40:43;;;;;;;2.23;1.50;;;3.10;99.10;;;;;;5040536;28;20173;-79
2021/10/24 05:43:09;;;;;;;0.57;0.47;;;3.10;99.10;;;;;;5040621;28;20483;-79
2021/10/24 05:45:36;;;;;;;2.40;0.53;;;3.10;99.10;;;;;;5041732;28;20193;-79
2021/10/24 05:48:02;;;;;;;1.20;1.10;;;3.10;99.10;;;;;;5040141;28;20478;-78
2021/10/24 05:50:28;;;;;;;0.63;0.52;;;3.00;99.10;;;;;;5040444;28;20212;-78
2021/10/24 05:52:54;;;;;;;0.70;0.60;;;3.00;99.10;;;;;;5040804;28;20264;-79
2021/10/24 05:55:21;;;;;;;2.20;0.93;;;3.00;99.10;;;;;;5040849;28;20203;-78
2021/10/24 05:57:47;;;;;;;1.60;1.50;;;3.00;99.10;;;;;;5041207;28;20435;-79
2021/10/24 06:00:13;;;;;;;1.35;1.25;;;3.00;99.10;;;;;;5040726;28;20772;-78
2021/10/24 06:02:39;;;;;;;0.90;0.80;;;3.00;99.10;;;;;;5040407;28;20169;-79
2021/10/24 06:05:06;;;;;;;1.77;0.80;;;3.00;99.10;;;;;;5039907;28;20284;-79
2021/10/24 06:07:33;;;;;;;1.30;1.25;;;3.00;99.10;;;;;;5038635;28;21017;-78
2021/10/24 06:10:07;;;;;;;0.63;0.60;;;3.00;99.10;;;;;;5040046;28;20335;-79
2021/10/24 06:15:00;;;;;;;2.00;0.75;;;3.00;99.10;;;;;;5058217;28;20240;-78
2021/10/24 06:17:27;;;;;;;0.70;0.60;;;3.00;99.10;;;;;;5040401;28;20227;-79
2021/10/24 06:19:52;;;;;;;0.50;0.40;;;3.00;99.10;;;;;;5040062;28;20197;-78
2021/10/24 06:22:18;;;;;;;5.23;0.93;;;3.00;99.10;;;;;;5040437;28;20651;-80
2021/10/24 06:24:44;;;;;;;0.80;0.60;;;3.00;99.10;;;;;;5040228;28;20412;-78
2021/10/24 06:27:10;;;;;;;1.30;1.20;;;3.00;99.10;;;;;;5040394;28;20486;-79
2021/10/24 06:29:36;;;;;;;1.07;0.97;;;3.10;99.10;;;;;;5040156;28;20404;-79
2021/10/24 06:32:02;;;;;;;0.80;0.50;;;3.10;99.10;;;;;;5040421;28;20422;-79
2021/10/24 06:34:27;;;;;;;0.60;0.57;;;3.10;99.10;;;;;;5040284;28;20408;-78
2021/10/24 06:36:53;;;;;;;0.90;0.80;;;3.20;99.10;;;;;;5039980;28;20558;-79
2021/10/24 06:39:19;;;;;;;2.60;1.60;;;3.20;99.10;;;;;;5041069;28;20205;-79
2021/10/24 06:41:45;;;;;;;0.60;0.60;;;3.20;99.10;;;;;;5041150;28;20479;-79
2021/10/24 06:44:10;;;;;;;0.80;0.70;;;3.20;99.10;;;;;;5040383;28;20176;-79
2021/10/24 06:46:36;;;;;;;0.93;0.80;;;3.30;99.10;;;;;;5040187;28;20208;-79
2021/10/24 06:49:02;;;;;;;0.55;0.47;;;3.30;99.10;;;;;;5040791;28;20256;-79
2021/10/24 06:51:28;;;;;;;1.07;0.97;;;3.30;99.10;;;;;;5040595;28;20169;-77
2021/10/24 06:53:54;;;;;;;1.83;0.50;;;3.30;99.10;;;;;;5039673;28;20494;-79
2021/10/24 06:56:19;;;;;;;1.23;0.50;;;3.40;99.10;;;;;;5038990;28;20956;-79
2021/10/24 06:58:45;;;;;;;1.57;0.90;;;3.40;99.10;;;;;;5039571;28;20539;-78
2021/10/24 07:01:11;;;;;;;0.65;0.55;;;3.50;99.10;;;;;;5039362;28;20528;-78
2021/10/24 07:03:37;;;;;;;0.90;0.80;;;3.50;99.10;;;;;;5039261;28;20268;-78
2021/10/24 07:06:03;;;;;;;0.80;0.70;;;3.60;99.10;;;;;;5038941;28;20447;-78
2021/10/24 07:08:28;;;;;;;19.23;1.87;;;3.60;99.10;;;;;;5038875;28;20234;-78
2021/10/24 07:10:54;;;;;;;0.60;0.50;;;3.70;99.10;;;;;;5038889;28;20280;-78
2021/10/24 07:13:20;;;;;;;1.47;0.93;;;3.80;99.10;;;;;;5038600;28;20399;-80
2021/10/24 07:15:45;;;;;;;0.67;0.57;;;3.80;99.10;;;;;;5038318;28;20823;-80
2021/10/24 07:18:11;;;;;;;1.97;0.90;;;3.90;99.10;;;;;;5038387;28;20193;-80
2021/10/24 07:20:37;;;;;;;0.70;0.60;;;4.00;99.10;;;;;;5038372;28;20177;-80
2021/10/24 07:23:03;;;;;;;1.70;1.17;;;4.00;99.10;;;;;;5037949;28;20173;-80
2021/10/24 07:25:28;;;;;;;1.67;0.90;;;4.10;99.10;;;;;;5038150;28;21043;-81
2021/10/24 07:27:54;;;;;;;1.90;1.20;;;4.20;99.10;;;;;;5038122;28;20822;-81
2021/10/24 07:30:21;;;;;;;0.80;0.70;;;4.30;99.10;;;;;;5038337;28;20196;-80
2021/10/24 07:32:47;;;;;;;1.25;1.10;;;4.30;99.10;;;;;;5038118;28;20536;-80
2021/10/24 07:35:13;;;;;;;1.00;0.90;;;4.40;99.10;;;;;;5037841;28;20202;-80
2021/10/24 07:37:40;;;;;;;0.52;0.50;;;4.50;99.10;;;;;;5038107;28;20185;-80
2021/10/24 07:40:07;;;;;;;1.13;0.85;;;4.50;99.10;;;;;;5037890;28;20180;-80
2021/10/24 07:42:33;;;;;;;2.42;1.10;;;4.60;99.10;;;;;;5038166;28;20166;-79
2021/10/24 07:44:59;;;;;;;1.90;1.17;;;4.70;99.10;;;;;;5038030;28;20169;-79
2021/10/24 07:47:30;;;;;;;0.82;0.73;;;4.80;99.10;;;;;;5038046;28;20201;-80
2021/10/24 07:50:01;;;;;;;1.95;0.80;;;4.90;99.10;;;;;;5037699;28;20173;-80
2021/10/24 07:52:27;;;;;;;1.70;1.13;;;5.00;99.10;;;;;;5037403;28;20197;-80
2021/10/24 07:54:53;;;;;;;1.98;1.90;;;5.10;99.10;;;;;;5037613;28;20637;-79
2021/10/24 07:57:20;;;;;;;3.20;1.53;;;5.20;99.10;;;;;;5037533;28;20249;-80
2021/10/24 07:59:47;;;;;;;1.02;1.00;;;5.20;99.10;;;;;;5037747;28;21020;-81
2021/10/24 08:02:17;;;;;;;1.00;0.90;;;5.30;99.10;;;;;;5037489;28;20637;-81
2021/10/24 08:04:43;;;;;;;2.67;2.53;;;5.40;99.10;;;;;;5037738;28;20207;-81
2021/10/24 08:07:08;;;;;;;2.83;1.27;;;5.50;99.10;;;;;;5038100;28;20205;-81
2021/10/24 08:09:34;;;;;;;2.13;1.53;;;5.60;99.00;;;;;;5038780;28;20578;-81
2021/10/24 08:12:00;;;;;;;1.13;1.00;;;5.70;98.60;;;;;;5037540;28;20185;-82
2021/10/24 08:14:26;;;;;;;3.47;1.77;;;5.80;98.50;;;;;;5037050;28;20530;-81
2021/10/24 08:16:52;;;;;;;3.28;3.08;;;5.90;98.30;;;;;;5037258;28;20447;-80
2021/10/24 08:19:18;;;;;;;1.35;1.27;;;6.00;98.20;;;;;;5037662;28;20586;-81
2021/10/24 08:21:45;;;;;;;5.20;1.77;;;6.00;98.30;;;;;;5037167;28;20259;-82
2021/10/24 08:24:11;;;;;;;2.38;2.10;;;6.10;98.40;;;;;;5037596;28;20177;-81
2021/10/24 08:26:37;;;;;;;2.00;1.42;;;6.20;98.10;;;;;;5037085;28;20208;-81
2021/10/24 08:29:02;;;;;;;9.30;1.43;;;6.20;97.80;;;;;;5038126;28;20191;-82
2021/10/24 08:31:29;;;;;;;1.63;1.50;;;6.30;97.70;;;;;;5037882;28;20469;-81
2021/10/24 08:33:56;;;;;;;1.02;0.95;;;6.40;97.30;;;;;;5038227;28;20432;-82
2021/10/24 08:36:23;;;;;;;3.80;2.25;;;6.50;97.20;;;;;;5043341;28;20169;-83
2021/10/24 08:38:49;;;;;;;1.65;1.23;;;6.60;96.90;;;;;;5038769;28;20184;-83
2021/10/24 08:41:24;;;;;;;1.60;1.25;;;6.70;96.80;;;;;;5038075;28;20653;-83
2021/10/24 08:43:52;;;;;;;2.13;1.60;;;6.70;96.20;;;;;;5039041;28;20643;-84
2021/10/24 08:46:19;;;;;;;2.75;1.38;;;6.70;95.70;;;;;;5038505;28;20228;-83
2021/10/24 08:48:51;;;;;;;2.78;2.58;;;6.90;95.30;;;;;;5039044;28;20177;-83
2021/10/24 08:51:18;;;;;;;8.10;2.33;;;7.00;95.30;;;;;;5042691;28;20248;-83
2021/10/24 08:53:47;;;;;;;4.20;2.20;;;7.20;95.20;;;;;;5042648;28;20180;-83
2021/10/24 08:56:15;;;;;;;1.30;1.15;;;7.40;95.30;;;;;;5042751;28;20189;-83
2021/10/24 08:58:41;;;;;;;3.25;1.83;;;7.60;93.40;;;;;;5042255;28;20169;-82
2021/10/24 09:01:07;;;;;;;2.30;1.95;;;7.90;92.20;;;;;;5042318;28;20184;-82
2021/10/24 09:03:33;;;;;;;8.80;2.10;;;8.10;91.20;;;;;;5041285;28;20177;-80
2021/10/24 09:05:59;;;;;;;1.70;1.60;;;8.20;91.20;;;;;;5040763;28;20201;-80
2021/10/24 09:08:25;;;;;;;4.03;2.50;;;8.40;91.10;;;;;;5040802;28;20189;-81
2021/10/24 09:11:00;;;;;;;4.28;2.10;;;8.60;90.30;;;;;;5040514;28;20195;-81
2021/10/24 09:13:34;;;;;;;1.13;1.02;;;8.70;89.10;;;;;;5040133;28;20161;-81
2021/10/24 09:16:06;;;;;;;1.77;1.70;;;8.80;88.80;;;;;;5040422;28;20183;-82
2021/10/24 09:18:45;;;;;;;2.92;1.27;;;8.90;88.70;;;;;;5040125;28;20197;-80
2021/10/24 09:21:19;;;;;;;1.75;1.63;;;8.90;87.70;;;;;;5040568;28;20193;-81
2021/10/24 09:23:52;;;;;;;7.00;2.10;;;8.90;87.10;;;;;;5039914;28;20165;-81
2021/10/24 09:26:24;;;;;;;2.90;1.70;;;8.90;88.00;;;;;;5040255;28;20204;-81
2021/10/24 09:29:07;;;;;;;1.30;1.20;;;9.00;88.00;;;;;;5040594;28;20176;-81
2021/10/24 09:31:35;;;;;;;2.13;1.73;;;9.10;87.60;;;;;;5040216;28;20783;-81
2021/10/24 09:34:19;;;;;;;3.20;1.30;;;9.20;85.90;;;;;;5040058;28;20169;-81
2021/10/24 09:36:58;;;;;;;1.25;1.15;;;9.20;86.20;;;;;;5040121;28;20196;-81
2021/10/24 09:39:32;;;;;;;2.10;1.80;;;9.30;85.20;;;;;;5039971;28;20227;-81
2021/10/24 09:42:27;;;;;;;1.52;1.30;;;9.40;84.50;;;;;;5039749;28;20195;-81
2021/10/24 09:45:00;;;;;;;2.80;1.85;;;9.50;85.80;;;;;;5037549;28;20207;-80
2021/10/24 09:47:27;;;;;;;1.77;1.73;;;9.60;84.50;;;;;;5040555;28;20236;-80
2021/10/24 09:49:53;;;;;;;2.55;1.60;;;9.70;84.40;;;;;;5039419;28;20175;-81
2021/10/24 09:52:32;;;;;;;9.53;2.30;;;9.80;83.90;;;;;;5039744;28;20173;-81
2021/10/24 09:54:58;;;;;;;5.53;1.88;;;9.80;84.20;;;;;;5040066;28;20972;-81
2021/10/24 09:57:24;;;;;;;2.92;1.67;;;9.90;83.90;;;;;;5039962;28;20238;-81
2021/10/24 09:59:53;;;;;;;1.83;1.53;;;10.10;84.50;;;;;;5039842;28;20173;-81
2021/10/24 10:02:20;;;;;;;1.77;1.70;;;10.20;83.00;;;;;;5039826;28;20433;-81
2021/10/24 10:04:47;;;;;;;2.10;1.42;;;10.30;83.30;;;;;;5040283;28;20211;-81
2021/10/24 10:07:21;;;;;;;2.67;1.73;;;10.40;82.60;;;;;;5039381;28;20201;-81
2021/10/24 10:09:46;;;;;;;3.30;1.73;;;10.50;82.00;;;;;;5039969;28;20199;-81
2021/10/24 10:12:17;;;;;;;1.50;1.17;;;10.60;82.40;;;;;;5039228;28;20185;-81
2021/10/24 10:14:45;;;;;;;2.92;1.45;;;10.70;81.20;;;;;;5039339;28;20404;-80
2021/10/24 10:17:14;;;;;;;1.67;1.33;;;10.80;81.00;;;;;;5039596;28;20279;-81
2021/10/24 10:19:42;;;;;;;2.70;1.77;;;11.00;79.80;;;;;;5039375;28;20177;-81
2021/10/24 10:22:29;;;;;;;2.65;1.65;;;11.10;78.90;;;;;;5039070;28;20185;-81
2021/10/24 10:25:06;;;;;;;4.20;1.85;;;11.30;78.90;;;;;;5039899;28;20181;-81
2021/10/24 10:27:38;;;;;;;1.95;1.77;;;11.40;77.30;;;;;;5039958;28;20208;-82
2021/10/24 10:30:14;;;;;;;4.88;2.42;;;11.50;76.30;;;;;;5042604;28;20591;-80
2021/10/24 10:32:46;;;;;;;2.17;1.52;;;11.60;76.00;;;;;;5040023;28;20200;-81
2021/10/24 10:35:22;;;;;;;1.02;0.98;;;11.70;75.30;;;;;;5040334;28;20169;-81
2021/10/24 10:37:50;;;;;;;2.25;1.50;;;11.80;75.10;;;;;;5040616;28;20197;-81
2021/10/24 10:40:33;;;;;;;2.78;1.35;;;11.90;74.20;;;;;;5040855;28;20165;-80
2021/10/24 10:43:02;;;;;;;3.22;2.47;;;12.10;74.20;;;;;;5042418;28;20188;-81
2021/10/24 10:45:39;;;;;;;1.58;1.33;;;12.20;74.10;;;;;;5060965;28;20169;-80
2021/10/24 10:48:23;;;;;;;3.05;1.83;;;12.30;72.80;;;;;;5042631;28;20220;-80
2021/10/24 10:51:19;;;;;;;1.42;1.10;;;12.50;72.80;;;;;;5043091;28;20215;-82
2021/10/24 10:53:45;;;;;;;2.60;1.23;;;12.60;71.90;;;;;;5031081;28;20177;-82
2021/10/24 10:56:26;;;;;;;2.57;1.30;;;12.70;71.20;;;;;;5039102;28;20633;-82
2021/10/24 10:59:00;;;;;;;1.33;1.23;;;12.80;70.10;;;;;;5038964;28;20189;-81
2021/10/24 11:01:36;;;;;;;2.45;1.40;;;12.90;70.20;;;;;;5040546;28;20264;-82
2021/10/24 11:04:08;;;;;;;2.63;1.52;;;13.00;69.60;;;;;;5040083;28;20168;-81
2021/10/24 11:06:33;;;;;;;1.50;1.20;;;13.00;69.10;;;;;;5039069;28;20201;-80
2021/10/24 11:09:03;;;;;;;4.27;1.40;;;13.10;68.90;;;;;;5038502;28;20169;-82
2021/10/24 11:11:41;;;;;;;1.75;1.40;;;13.30;69.50;;;;;;5038640;28;20551;-82
2021/10/24 11:14:16;;;;;;;4.90;1.45;;;13.40;69.20;;;;;;5038174;28;20169;-82
2021/10/24 11:17:02;;;;;;;2.65;1.30;;;13.60;68.80;;;;;;5037588;28;20326;-80
2021/10/24 11:19:37;;;;;;;3.85;1.77;;;13.80;67.70;;;;;;5037422;28;20184;-81
2021/10/24 11:22:09;;;;;;;2.03;1.40;;;13.90;65.60;;;;;;5038236;28;20180;-82
2021/10/24 11:24:45;;;;;;;1.58;1.25;;;14.00;66.40;;;;;;5037848;28;20207;-81
2021/10/24 11:27:14;;;;;;;1.70;1.45;;;14.10;65.90;;;;;;5037823;28;20227;-81
2021/10/24 11:30:06;;;;;;;1.30;1.20;;;14.10;66.30;;;;;;5038171;28;20169;-81
2021/10/24 11:32:34;;;;;;;0.98;0.88;;;14.20;64.50;;;;;;5037544;28;20157;-81
2021/10/24 11:35:01;;;;;;;1.10;1.00;;;14.30;65.20;;;;;;5037610;28;20180;-81
2021/10/24 11:37:39;;;;;;;0.80;0.80;;;14.40;62.70;;;;;;5037672;28;20259;-80
2021/10/24 11:40:10;;;;;;;2.80;1.95;;;14.50;63.00;;;;;;5037311;28;20264;-81
2021/10/24 11:42:36;;;;;;;2.90;1.83;;;14.70;63.10;;;;;;5036921;28;20180;-80
2021/10/24 11:45:22;;;;;;;2.42;1.92;;;14.80;61.70;;;;;;5037289;28;20169;-81
2021/10/24 11:48:07;;;;;;;2.60;1.90;;;15.00;61.40;;;;;;5036948;28;20208;-80
2021/10/24 11:50:35;;;;;;;2.90;1.65;;;15.10;62.00;;;;;;5037128;28;20279;-82
2021/10/24 11:53:01;;;;;;;1.42;1.00;;;15.20;63.30;;;;;;5036227;28;20170;-80
2021/10/24 11:55:27;;;;;;;4.18;1.67;;;15.20;61.70;;;;;;5037151;28;20235;-80
2021/10/24 12:01:06;;;;;;;4.07;1.80;;;15.40;61.30;;;;;;5054959;28;20450;-81
2021/10/24 12:03:26;;;;;;;3.60;1.25;;;15.60;61.20;;;;;;5053360;28;20184;-82
2021/10/24 12:05:53;;;;;;;1.52;1.33;;;15.60;60.80;;;;;;5037893;28;20272;-80
2021/10/24 12:08:46;;;;;;;3.45;2.00;;;15.80;61.40;;;;;;5037366;28;20201;-83
2021/10/24 12:11:40;;;;;;;1.73;0.90;;;15.90;61.20;;;;;;5037317;28;20272;-80
2021/10/24 12:14:06;;;;;;;2.15;1.50;;;16.00;59.40;;;;;;5037201;28;20169;-81
2021/10/24 12:16:36;;;;;;;2.20;1.73;;;16.00;59.30;;;;;;5037385;28;20196;-81
2021/10/24 12:19:18;;;;;;;1.88;1.17;;;16.00;58.90;;;;;;5037631;28;20410;-81
2021/10/24 12:21:59;;;;;;;3.45;2.30;;;16.10;60.60;;;;;;5037799;28;20664;-81
2021/10/24 12:24:29;;;;;;;2.85;1.48;;;16.00;58.90;;;;;;5037131;28;20636;-82
2021/10/24 12:27:25;;;;;;;1.98;1.10;;;16.00;60.60;;;;;;5038047;28;20228;-82
2021/10/24 12:30:04;;;;;;;4.10;1.55;;;16.10;60.20;;;;;;5038625;28;20165;-83
2021/10/24 12:32:31;;;;;;;2.47;1.58;;;16.20;59.10;;;;;;5037949;28;20173;-83
2021/10/24 12:35:10;;;;;;;2.58;1.70;;;16.30;59.30;;;;;;5038807;28;20173;-83
2021/10/24 12:37:38;;;;;;;2.85;1.90;;;16.40;58.30;;;;;;5037509;28;20199;-81
2021/10/24 12:40:22;;;;;;;1.50;1.38;;;16.20;58.90;;;;;;5038585;28;20179;-82
2021/10/24 12:43:11;;;;;;;1.45;1.33;;;16.20;59.20;;;;;;5038674;28;20176;-82
2021/10/24 12:45:52;;;;;;;3.55;1.90;;;16.20;60.10;;;;;;5037910;28;20572;-83
2021/10/24 12:48:20;;;;;;;3.13;1.40;;;16.40;59.20;;;;;;5037199;28;20541;-83
2021/10/24 12:50:46;;;;;;;4.05;2.05;;;16.50;59.70;;;;;;5037158;28;20177;-82
2021/10/24 12:53:17;;;;;;;2.67;1.73;;;16.50;59.40;;;;;;5037507;28;20169;-82
2021/10/24 12:56:06;;;;;;;2.45;1.88;;;16.50;60.20;;;;;;5037640;28;20418;-83
2021/10/24 12:58:33;;;;;;;2.88;1.52;;;16.60;59.40;;;;;;5037138;28;20196;-83
2021/10/24 13:00:58;;;;;;;4.40;1.88;;;16.50;58.80;;;;;;5037772;28;20610;-82
2021/10/24 13:03:24;;;;;;;3.00;2.13;;;16.60;59.20;;;;;;5036979;28;20188;-80
2021/10/24 13:05:50;;;;;;;3.57;2.27;;;16.70;58.50;;;;;;5037027;28;20483;-81
2021/10/24 13:08:17;;;;;;;2.93;2.33;;;16.70;59.40;;;;;;5037006;28;20435;-81